createdAt,value
2019-05-21T00:00:39.263Z,58.00
2019-05-21T00:01:43.725Z,57.17
2019-05-21T00:02:48.798Z,67.32
2019-05-21T00:03:53.237Z,56.37
2019-05-21T00:04:58.240Z,57.73
2019-05-21T00:06:02.794Z,56.05
2019-05-21T00:07:08.927Z,53.45
2019-05-21T00:08:13.366Z,52.95
2019-05-21T00:09:18.342Z,49.25
2019-05-21T00:10:22.870Z,49.00
2019-05-21T00:11:27.855Z,42.35
2019-05-21T00:12:32.295Z,39.00
2019-05-21T00:13:38.895Z,34.90
2019-05-21T00:14:43.631Z,42.23
2019-05-21T00:15:48.614Z,41.08
2019-05-21T00:16:53.045Z,50.95
2019-05-21T00:17:58.056Z,45.38
2019-05-21T00:19:02.796Z,53.48
2019-05-21T00:20:08.126Z,55.85
2019-05-21T00:21:12.550Z,57.45
2019-05-21T00:22:17.843Z,54.93
2019-05-21T00:23:22.690Z,53.13
2019-05-21T00:24:27.870Z,50.95
2019-05-21T00:25:32.409Z,47.40
2019-05-21T00:26:37.458Z,51.10
2019-05-21T00:27:41.977Z,48.75
2019-05-21T00:29:22.965Z,46.25
2019-05-21T00:31:03.982Z,49.63
2019-05-21T00:32:44.973Z,46.25
2019-05-21T00:34:26.104Z,45.23
2019-05-21T00:36:07.572Z,44.48
2019-05-21T00:37:48.723Z,44.15
2019-05-21T00:39:29.984Z,43.83
2019-05-21T00:41:12.753Z,47.65
2019-05-21T00:42:30.184Z,51.98
2019-05-21T00:43:43.544Z,46.00
2019-05-21T00:44:48.522Z,53.45
2019-05-21T00:45:53.275Z,49.13
2019-05-21T00:46:58.555Z,51.80
2019-05-21T00:48:05.692Z,46.30
2019-05-21T00:49:09.704Z,48.00
2019-05-21T00:50:14.478Z,50.88
2019-05-21T00:51:19.470Z,50.78
2019-05-21T00:52:24.931Z,51.85
2019-05-21T00:53:30.002Z,51.95
2019-05-21T00:54:34.493Z,56.88
2019-05-21T00:55:40.442Z,60.83
2019-05-21T00:56:44.861Z,60.05
2019-05-21T00:57:49.906Z,58.52
2019-05-21T00:58:54.353Z,57.38
2019-05-21T00:59:59.329Z,56.40
2019-05-21T01:01:03.825Z,63.10
2019-05-21T01:02:08.803Z,56.45
2019-05-21T01:03:13.253Z,55.50
2019-05-21T01:04:18.357Z,58.30
2019-05-21T01:05:23.257Z,58.55
2019-05-21T01:06:28.620Z,52.85
2019-05-21T01:07:34.445Z,57.23
2019-05-21T01:08:39.546Z,55.88
2019-05-21T01:09:44.304Z,56.30
2019-05-21T01:10:49.287Z,60.73
2019-05-21T01:11:53.846Z,57.20
2019-05-21T01:12:58.826Z,54.95
2019-05-21T01:14:03.431Z,65.85
2019-05-21T01:15:08.639Z,57.78
2019-05-21T01:16:13.068Z,55.95
2019-05-21T01:17:18.057Z,58.42
2019-05-21T01:18:22.494Z,54.05
2019-05-21T01:19:27.477Z,60.28
2019-05-21T01:20:31.899Z,61.98
2019-05-21T01:21:36.941Z,61.30
2019-05-21T01:22:41.381Z,65.67
2019-05-21T01:23:46.434Z,62.27
2019-05-21T01:24:51.148Z,57.25
2019-05-21T01:25:56.132Z,63.10
2019-05-21T01:27:00.550Z,60.28
2019-05-21T01:28:05.632Z,57.03
2019-05-21T01:29:11.188Z,63.70
2019-05-21T01:30:16.773Z,63.90
2019-05-21T01:31:21.218Z,63.15
2019-05-21T01:32:26.184Z,85.28
2019-05-21T01:33:30.626Z,81.20
2019-05-21T01:34:35.864Z,62.27
2019-05-21T01:35:40.568Z,78.87
2019-05-21T01:36:45.557Z,80.15
2019-05-21T01:37:49.986Z,59.95
2019-05-21T01:38:55.434Z,82.55
2019-05-21T01:39:59.904Z,77.15
2019-05-21T01:41:05.276Z,54.95
2019-05-21T01:42:09.703Z,63.95
2019-05-21T01:43:14.681Z,67.80
2019-05-21T01:44:19.129Z,62.00
2019-05-21T01:45:25.203Z,67.78
2019-05-21T01:46:29.634Z,100.65
2019-05-21T01:47:34.682Z,80.35
2019-05-21T01:48:39.132Z,76.00
2019-05-21T01:49:44.110Z,84.32
2019-05-21T01:50:48.879Z,110.85
2019-05-21T01:51:54.043Z,104.75
2019-05-21T01:52:58.538Z,69.55
2019-05-21T01:54:03.542Z,112.10
2019-05-21T01:55:08.225Z,125.18
2019-05-21T01:56:13.741Z,121.80
2019-05-21T01:57:19.524Z,77.87
2019-05-21T01:58:24.629Z,101.65
2019-05-21T01:59:29.105Z,123.92
2019-05-21T02:00:34.165Z,119.62
2019-05-21T02:01:38.597Z,118.87
2019-05-21T02:02:43.568Z,95.55
2019-05-21T02:03:48.019Z,118.53
2019-05-21T02:04:53.084Z,71.75
2019-05-21T02:05:57.573Z,97.22
2019-05-21T02:07:02.550Z,90.10
2019-05-21T02:08:07.043Z,125.45
2019-05-21T02:09:12.048Z,123.02
2019-05-21T02:10:16.553Z,92.12
2019-05-21T02:11:21.628Z,110.05
2019-05-21T02:12:26.789Z,129.87
2019-05-21T02:13:31.848Z,135.10
2019-05-21T02:14:36.299Z,146.25
2019-05-21T02:15:41.286Z,117.55
2019-05-21T02:16:45.736Z,123.18
2019-05-21T02:17:50.737Z,86.78
2019-05-21T02:18:55.183Z,131.40
2019-05-21T02:20:00.195Z,151.27
2019-05-21T02:21:06.120Z,162.97
2019-05-21T02:22:11.105Z,105.43
2019-05-21T02:23:15.536Z,146.72
2019-05-21T02:24:20.831Z,123.75
2019-05-21T02:25:25.265Z,116.17
2019-05-21T02:26:30.251Z,108.30
2019-05-21T02:27:34.674Z,99.50
2019-05-21T02:28:40.736Z,97.02
2019-05-21T02:29:45.517Z,83.58
2019-05-21T02:30:50.510Z,101.75
2019-05-21T02:31:56.014Z,110.65
2019-05-21T02:33:01.005Z,91.32
2019-05-21T02:34:05.499Z,158.18
2019-05-21T02:35:10.648Z,121.97
2019-05-21T02:36:15.389Z,150.53
2019-05-21T02:37:20.384Z,123.38
2019-05-21T02:38:24.802Z,77.70
2019-05-21T02:39:29.824Z,98.87
2019-05-21T02:40:34.309Z,86.70
2019-05-21T02:41:39.296Z,84.80
2019-05-21T02:42:43.726Z,77.15
2019-05-21T02:43:48.704Z,80.10
2019-05-21T02:44:54.589Z,71.35
2019-05-21T02:45:59.784Z,60.38
2019-05-21T02:47:04.270Z,64.75
2019-05-21T02:48:09.398Z,61.80
2019-05-21T02:49:13.895Z,59.55
2019-05-21T02:50:19.204Z,52.43
2019-05-21T02:51:23.627Z,57.53
2019-05-21T02:52:28.611Z,60.65
2019-05-21T02:53:34.483Z,60.58
2019-05-21T02:54:41.723Z,63.55
2019-05-21T02:55:45.963Z,66.00
2019-05-21T02:56:50.927Z,68.42
2019-05-21T02:57:55.349Z,60.15
2019-05-21T02:59:00.624Z,67.72
2019-05-21T03:00:07.948Z,59.03
2019-05-21T03:01:17.496Z,68.00
2019-05-21T03:02:25.505Z,61.73
2019-05-21T03:03:32.491Z,60.58
2019-05-21T03:04:36.937Z,54.42
2019-05-21T03:05:41.989Z,57.95
2019-05-21T03:06:46.477Z,54.88
2019-05-21T03:07:51.856Z,60.17
2019-05-21T03:08:56.311Z,65.50
2019-05-21T03:10:01.743Z,83.90
2019-05-21T03:11:06.633Z,78.55
2019-05-21T03:12:11.594Z,83.10
2019-05-21T03:13:16.038Z,90.87
2019-05-21T03:14:21.161Z,91.47
2019-05-21T03:15:25.757Z,98.72
2019-05-21T03:16:31.030Z,68.67
2019-05-21T03:17:35.544Z,70.08
2019-05-21T03:18:40.807Z,77.25
2019-05-21T03:19:45.315Z,72.35
2019-05-21T03:20:50.318Z,88.95
2019-05-21T03:21:54.746Z,66.75
2019-05-21T03:22:59.800Z,62.88
2019-05-21T03:24:04.390Z,67.67
2019-05-21T03:25:09.911Z,77.55
2019-05-21T03:26:14.339Z,64.58
2019-05-21T03:27:19.312Z,67.53
2019-05-21T03:28:24.013Z,52.50
2019-05-21T03:29:29.139Z,67.37
2019-05-21T03:30:33.595Z,61.33
2019-05-21T03:31:38.622Z,67.22
2019-05-21T03:32:43.031Z,79.67
2019-05-21T03:33:48.321Z,73.45
2019-05-21T03:34:52.791Z,54.85
2019-05-21T03:35:58.361Z,94.30
2019-05-21T03:37:03.014Z,63.55
2019-05-21T03:38:09.369Z,69.53
2019-05-21T03:39:13.875Z,66.92
2019-05-21T03:40:18.943Z,65.95
2019-05-21T03:41:23.498Z,72.92
2019-05-21T03:42:28.819Z,99.92
2019-05-21T03:43:33.397Z,68.75
2019-05-21T03:44:56.316Z,68.92
2019-05-21T03:45:45.066Z,68.75
2019-05-21T03:46:50.501Z,69.42
2019-05-21T03:47:55.230Z,88.33
2019-05-21T03:49:00.754Z,77.03
2019-05-21T03:50:06.514Z,62.62
2019-05-21T03:51:11.825Z,75.50
2019-05-21T03:52:16.767Z,65.05
2019-05-21T03:53:22.086Z,63.02
2019-05-21T03:54:26.702Z,96.87
2019-05-21T03:55:32.231Z,64.22
2019-05-21T03:56:36.969Z,58.17
2019-05-21T03:57:42.265Z,66.42
2019-05-21T03:58:47.304Z,67.67
2019-05-21T03:59:52.641Z,60.65
2019-05-21T04:00:57.417Z,60.75
2019-05-21T04:02:02.448Z,62.53
2019-05-21T04:03:07.254Z,58.35
2019-05-21T04:04:12.231Z,46.15
2019-05-21T04:05:25.167Z,60.85
2019-05-21T04:06:30.375Z,59.03
2019-05-21T04:07:34.907Z,62.20
2019-05-21T04:08:39.905Z,51.60
2019-05-21T04:09:44.614Z,37.28
2019-05-21T04:10:49.628Z,43.40
2019-05-21T04:11:54.081Z,41.10
2019-05-21T04:13:08.751Z,58.85
2019-05-21T04:14:15.242Z,47.53
2019-05-21T04:15:23.991Z,50.23
2019-05-21T04:16:42.400Z,51.45
2019-05-21T04:17:54.130Z,56.05
2019-05-21T04:19:03.176Z,53.02
2019-05-21T04:20:08.451Z,45.95
2019-05-21T04:21:13.760Z,38.73
2019-05-21T04:22:18.614Z,47.65
2019-05-21T04:23:23.598Z,62.03
2019-05-21T04:24:28.030Z,49.20
2019-05-21T04:25:33.282Z,53.50
2019-05-21T04:26:38.171Z,50.12
2019-05-21T04:27:43.152Z,35.52
2019-05-21T04:28:47.576Z,42.88
2019-05-21T04:29:52.568Z,54.75
2019-05-21T04:30:57.067Z,54.55
2019-05-21T04:32:01.997Z,66.10
2019-05-21T04:33:06.510Z,58.78
2019-05-21T04:34:11.748Z,42.78
2019-05-21T04:35:16.814Z,54.48
2019-05-21T04:36:22.875Z,54.95
2019-05-21T04:37:27.699Z,63.10
2019-05-21T04:38:42.731Z,52.38
2019-05-21T04:39:48.226Z,57.90
2019-05-21T04:40:53.205Z,50.28
2019-05-21T04:41:57.733Z,64.03
2019-05-21T04:43:02.948Z,51.02
2019-05-21T04:44:08.426Z,70.28
2019-05-21T04:45:14.220Z,58.50
2019-05-21T04:46:19.079Z,53.58
2019-05-21T04:47:24.470Z,50.55
2019-05-21T04:48:29.578Z,48.85
2019-05-21T04:49:34.848Z,70.08
2019-05-21T04:50:39.292Z,38.98
2019-05-21T04:51:44.290Z,63.02
2019-05-21T04:52:48.711Z,38.98
2019-05-21T04:53:54.024Z,36.50
2019-05-21T04:54:59.109Z,50.60
2019-05-21T04:56:06.116Z,44.65
2019-05-21T04:57:10.566Z,52.58
2019-05-21T04:58:15.552Z,44.08
2019-05-21T04:59:20.454Z,47.53
2019-05-21T05:00:26.895Z,45.58
2019-05-21T05:01:32.478Z,43.10
2019-05-21T05:02:37.923Z,44.15
2019-05-21T05:03:42.353Z,36.95
2019-05-21T05:04:47.339Z,32.35
2019-05-21T05:05:51.845Z,45.38
2019-05-21T05:06:56.899Z,39.30
2019-05-21T05:08:01.392Z,45.15
2019-05-21T05:09:07.309Z,44.85
2019-05-21T05:10:12.140Z,45.10
2019-05-21T05:11:17.192Z,43.55
2019-05-21T05:12:22.084Z,36.35
2019-05-21T05:13:27.047Z,35.43
2019-05-21T05:14:31.473Z,27.60
2019-05-21T05:15:36.456Z,31.82
2019-05-21T05:16:40.942Z,31.90
2019-05-21T05:17:45.939Z,29.15
2019-05-21T05:18:50.708Z,26.57
2019-05-21T05:19:55.694Z,29.85
2019-05-21T05:21:00.457Z,31.33
2019-05-21T05:22:05.569Z,38.33
2019-05-21T05:23:10.097Z,36.98
2019-05-21T05:24:15.075Z,29.85
2019-05-21T05:25:20.144Z,31.73
2019-05-21T05:26:25.192Z,28.00
2019-05-21T05:27:29.636Z,30.12
2019-05-21T05:28:34.610Z,30.82
2019-05-21T05:29:39.037Z,30.97
2019-05-21T05:30:44.014Z,26.45
2019-05-21T05:31:48.437Z,30.70
2019-05-21T05:32:54.502Z,39.13
2019-05-21T05:34:02.159Z,29.72
2019-05-21T05:35:08.500Z,37.23
2019-05-21T05:36:13.150Z,26.42
2019-05-21T05:37:18.153Z,27.05
2019-05-21T05:38:22.591Z,26.37
2019-05-21T05:39:27.895Z,24.85
2019-05-21T05:40:32.532Z,26.85
2019-05-21T05:41:37.582Z,26.35
2019-05-21T05:42:42.300Z,25.95
2019-05-21T05:43:47.300Z,26.12
2019-05-21T05:44:51.954Z,23.15
2019-05-21T05:45:56.942Z,26.23
2019-05-21T05:47:01.757Z,24.35
2019-05-21T05:48:06.817Z,22.82
2019-05-21T05:49:21.944Z,21.73
2019-05-21T05:51:56.035Z,25.62
2019-05-21T05:53:00.924Z,22.52
2019-05-21T05:54:07.696Z,23.62
2019-05-21T05:55:12.804Z,23.98
2019-05-21T05:56:17.481Z,22.42
2019-05-21T05:57:22.333Z,25.12
2019-05-21T05:58:28.298Z,24.40
2019-05-21T05:59:33.090Z,20.97
2019-05-21T06:00:38.129Z,22.25
2019-05-21T06:01:42.924Z,20.77
2019-05-21T06:02:47.623Z,21.57
2019-05-21T06:03:52.477Z,20.92
2019-05-21T06:04:57.261Z,30.02
2019-05-21T06:06:02.404Z,42.75
2019-05-21T06:07:07.152Z,31.80
2019-05-21T06:08:12.352Z,32.70
2019-05-21T06:09:16.965Z,38.23
2019-05-21T06:10:22.189Z,23.80
2019-05-21T06:11:26.868Z,19.92
2019-05-21T06:12:31.668Z,22.70
2019-05-21T06:13:36.290Z,24.63
2019-05-21T06:14:41.390Z,27.17
2019-05-21T06:15:46.052Z,28.80
2019-05-21T06:16:51.282Z,23.25
2019-05-21T06:17:55.917Z,23.50
2019-05-21T06:19:00.710Z,24.27
2019-05-21T06:20:06.957Z,22.20
2019-05-21T06:21:11.744Z,21.12
2019-05-21T06:22:16.485Z,26.23
2019-05-21T06:23:22.188Z,26.12
2019-05-21T06:24:27.737Z,24.77
2019-05-21T06:25:32.587Z,25.00
2019-05-21T06:26:37.255Z,29.77
2019-05-21T06:27:42.132Z,22.85
2019-05-21T06:28:46.758Z,18.10
2019-05-21T06:29:51.687Z,27.70
2019-05-21T06:30:56.632Z,23.77
2019-05-21T06:32:01.448Z,19.95
2019-05-21T06:33:06.142Z,22.95
2019-05-21T06:34:11.016Z,22.62
2019-05-21T06:35:16.530Z,23.73
2019-05-21T06:36:21.877Z,24.47
2019-05-21T06:37:26.477Z,20.95
2019-05-21T06:38:31.301Z,19.12
2019-05-21T06:39:35.909Z,19.25
2019-05-21T06:40:40.719Z,20.20
2019-05-21T06:41:45.307Z,25.57
2019-05-21T06:42:50.099Z,19.92
2019-05-21T06:43:54.722Z,21.77
2019-05-21T06:44:59.515Z,20.17
2019-05-21T06:46:04.260Z,21.07
2019-05-21T06:47:09.060Z,21.00
2019-05-21T06:48:13.742Z,20.88
2019-05-21T06:49:18.770Z,20.05
2019-05-21T06:50:23.382Z,19.00
2019-05-21T06:51:28.183Z,21.82
2019-05-21T06:52:32.790Z,19.65
2019-05-21T06:53:37.674Z,25.43
2019-05-21T06:54:42.281Z,24.43
2019-05-21T06:55:47.079Z,21.97
2019-05-21T06:56:51.750Z,19.73
2019-05-21T06:57:56.548Z,18.85
2019-05-21T06:59:01.537Z,20.00
2019-05-21T07:00:09.550Z,18.40
2019-05-21T07:01:14.146Z,19.45
2019-05-21T07:02:19.572Z,21.37
2019-05-21T07:03:24.199Z,22.67
2019-05-21T07:04:29.077Z,18.73
2019-05-21T07:05:33.685Z,17.92
2019-05-21T07:06:38.471Z,17.40
2019-05-21T07:07:43.142Z,18.92
2019-05-21T07:08:48.424Z,21.05
2019-05-21T07:09:53.094Z,19.50
2019-05-21T07:10:57.905Z,31.15
2019-05-21T07:12:02.502Z,18.85
2019-05-21T07:13:07.298Z,21.33
2019-05-21T07:14:11.950Z,17.23
2019-05-21T07:15:16.981Z,16.00
2019-05-21T07:16:21.584Z,17.75
2019-05-21T07:17:26.648Z,15.28
2019-05-21T07:18:31.263Z,18.12
2019-05-21T07:19:36.252Z,16.55
2019-05-21T07:20:40.918Z,19.07
2019-05-21T07:21:45.797Z,20.55
2019-05-21T07:22:50.661Z,18.87
2019-05-21T07:23:55.470Z,25.00
2019-05-21T07:25:00.069Z,21.12
2019-05-21T07:26:14.708Z,19.40
2019-05-21T07:27:19.312Z,32.83
2019-05-21T07:28:24.182Z,19.65
2019-05-21T07:29:28.797Z,18.23
2019-05-21T07:30:33.655Z,17.45
2019-05-21T07:31:38.647Z,21.40
2019-05-21T07:32:43.542Z,15.95
2019-05-21T07:33:48.246Z,17.35
2019-05-21T07:34:53.168Z,15.68
2019-05-21T07:35:57.743Z,14.73
2019-05-21T07:37:02.538Z,13.88
2019-05-21T07:38:08.591Z,16.52
2019-05-21T07:39:13.453Z,12.75
2019-05-21T07:40:18.799Z,12.55
2019-05-21T07:41:23.639Z,12.90
2019-05-21T07:42:28.308Z,12.58
2019-05-21T07:43:33.360Z,11.43
2019-05-21T07:44:37.965Z,11.93
2019-05-21T07:45:42.824Z,12.95
2019-05-21T07:46:47.570Z,12.85
2019-05-21T07:47:52.664Z,38.30
2019-05-21T07:48:57.265Z,18.87
2019-05-21T07:50:02.152Z,21.02
2019-05-21T07:51:08.244Z,17.17
2019-05-21T07:52:13.040Z,22.30
2019-05-21T07:53:17.648Z,16.55
2019-05-21T07:54:22.453Z,19.27
2019-05-21T07:55:27.123Z,22.95
2019-05-21T07:56:31.938Z,27.25
2019-05-21T07:57:36.612Z,24.50
2019-05-21T07:58:41.404Z,23.77
2019-05-21T07:59:46.161Z,17.02
2019-05-21T08:00:51.027Z,14.87
2019-05-21T08:01:55.722Z,13.75
2019-05-21T08:03:00.526Z,13.85
2019-05-21T08:04:06.303Z,13.38
2019-05-21T08:05:11.398Z,13.40
2019-05-21T08:06:16.090Z,25.00
2019-05-21T08:07:20.883Z,19.02
2019-05-21T08:08:26.022Z,12.93
2019-05-21T08:09:30.969Z,20.08
2019-05-21T08:10:36.028Z,13.60
2019-05-21T08:11:40.957Z,14.38
2019-05-21T08:12:45.569Z,13.45
2019-05-21T08:13:50.362Z,15.08
2019-05-21T08:14:54.977Z,13.35
2019-05-21T08:15:59.839Z,14.18
2019-05-21T08:17:04.510Z,13.88
2019-05-21T08:18:09.673Z,13.20
2019-05-21T08:19:14.352Z,15.72
2019-05-21T08:20:20.225Z,14.83
2019-05-21T08:21:24.847Z,13.72
2019-05-21T08:22:29.962Z,12.47
2019-05-21T08:23:34.569Z,16.07
2019-05-21T08:24:39.400Z,19.40
2019-05-21T08:25:44.128Z,18.77
2019-05-21T08:26:49.370Z,21.95
2019-05-21T08:27:54.021Z,12.43
2019-05-21T08:28:58.808Z,12.25
2019-05-21T08:30:03.877Z,21.85
2019-05-21T08:31:09.057Z,9.65
2019-05-21T08:32:13.724Z,11.10
2019-05-21T08:33:19.134Z,9.33
2019-05-21T08:34:24.381Z,11.35
2019-05-21T08:35:29.157Z,10.55
2019-05-21T08:36:34.056Z,10.95
2019-05-21T08:37:38.910Z,9.55
2019-05-21T08:38:43.495Z,9.28
2019-05-21T08:39:48.294Z,9.33
2019-05-21T08:40:52.889Z,9.50
2019-05-21T08:41:57.678Z,12.63
2019-05-21T08:43:02.360Z,9.63
2019-05-21T08:44:07.201Z,7.90
2019-05-21T08:45:12.553Z,8.35
2019-05-21T08:46:17.764Z,9.58
2019-05-21T08:47:22.502Z,10.55
2019-05-21T08:48:27.578Z,9.55
2019-05-21T08:49:32.315Z,13.62
2019-05-21T08:50:37.120Z,14.40
2019-05-21T08:51:41.791Z,10.32
2019-05-21T08:52:47.712Z,8.95
2019-05-21T08:53:52.647Z,10.98
2019-05-21T08:54:57.427Z,9.10
2019-05-21T08:56:02.159Z,14.90
2019-05-21T08:57:07.366Z,9.08
2019-05-21T08:58:12.493Z,9.38
2019-05-21T08:59:17.417Z,10.05
2019-05-21T09:00:25.765Z,7.33
2019-05-21T09:01:30.625Z,8.33
2019-05-21T09:02:35.226Z,10.68
2019-05-21T09:03:40.077Z,9.30
2019-05-21T09:04:46.787Z,5.85
2019-05-21T09:05:51.799Z,4.67
2019-05-21T09:06:56.397Z,6.28
2019-05-21T09:08:01.178Z,5.55
2019-05-21T09:09:06.719Z,7.37
2019-05-21T09:10:11.989Z,6.33
2019-05-21T09:11:16.662Z,8.25
2019-05-21T09:12:21.444Z,7.75
2019-05-21T09:13:26.104Z,37.42
2019-05-21T09:14:31.046Z,14.70
2019-05-21T09:15:35.655Z,6.97
2019-05-21T09:16:41.406Z,4.12
2019-05-21T09:17:46.000Z,5.83
2019-05-21T09:18:51.757Z,5.25
2019-05-21T09:19:56.872Z,6.62
2019-05-21T09:21:01.674Z,5.45
2019-05-21T09:22:06.411Z,5.80
2019-05-21T09:23:11.191Z,5.83
2019-05-21T09:24:15.786Z,6.15
2019-05-21T09:25:20.975Z,9.60
2019-05-21T09:26:25.569Z,8.38
2019-05-21T09:27:30.343Z,7.65
2019-05-21T09:28:35.015Z,5.22
2019-05-21T09:29:40.168Z,4.97
2019-05-21T09:30:45.346Z,3.65
2019-05-21T09:31:50.272Z,3.70
2019-05-21T09:32:54.938Z,3.65
2019-05-21T09:33:59.782Z,5.37
2019-05-21T09:35:06.606Z,5.17
2019-05-21T09:36:11.474Z,3.40
2019-05-21T09:37:19.592Z,5.62
2019-05-21T09:38:22.827Z,4.45
2019-05-21T09:39:27.423Z,5.08
2019-05-21T09:40:32.850Z,4.35
2019-05-21T09:41:37.583Z,4.35
2019-05-21T09:42:45.219Z,5.08
2019-05-21T09:43:48.795Z,6.80
2019-05-21T09:44:53.710Z,4.70
2019-05-21T09:45:58.398Z,3.87
2019-05-21T09:47:03.193Z,6.37
2019-05-21T09:48:07.901Z,6.03
2019-05-21T09:49:13.732Z,4.80
2019-05-21T09:50:19.235Z,4.62
2019-05-21T09:51:24.099Z,4.47
2019-05-21T09:52:28.766Z,5.28
2019-05-21T09:53:33.971Z,4.53
2019-05-21T09:54:38.662Z,5.50
2019-05-21T09:55:43.467Z,5.03
2019-05-21T09:56:48.192Z,3.87
2019-05-21T09:58:12.805Z,5.30
2019-05-21T09:59:34.358Z,4.53
2019-05-21T10:00:40.583Z,5.08
2019-05-21T10:01:48.212Z,5.08
2019-05-21T10:02:52.983Z,6.90
2019-05-21T10:03:59.720Z,4.62
2019-05-21T10:05:06.373Z,4.30
2019-05-21T10:06:11.499Z,3.75
2019-05-21T10:07:16.044Z,4.80
2019-05-21T10:08:21.016Z,4.78
2019-05-21T10:09:25.460Z,3.75
2019-05-21T10:10:30.733Z,4.10
2019-05-21T10:11:35.147Z,5.28
2019-05-21T10:12:40.185Z,3.85
2019-05-21T10:13:44.666Z,4.40
2019-05-21T10:14:49.635Z,4.03
2019-05-21T10:15:54.121Z,5.17
2019-05-21T10:17:00.152Z,5.03
2019-05-21T10:18:04.949Z,7.53
2019-05-21T10:19:09.989Z,19.52
2019-05-21T10:20:14.536Z,6.80
2019-05-21T10:21:19.790Z,5.15
2019-05-21T10:22:24.432Z,4.62
2019-05-21T10:23:29.465Z,5.05
2019-05-21T10:24:34.389Z,4.00
2019-05-21T10:25:39.514Z,6.33
2019-05-21T10:26:44.338Z,7.33
2019-05-21T10:27:49.303Z,5.50
2019-05-21T10:28:53.716Z,5.47
2019-05-21T10:29:58.675Z,7.60
2019-05-21T10:31:03.160Z,19.82
2019-05-21T10:32:08.217Z,4.85
2019-05-21T10:33:12.622Z,6.55
2019-05-21T10:34:17.668Z,4.40
2019-05-21T10:35:22.585Z,6.10
2019-05-21T10:36:27.618Z,5.85
2019-05-21T10:37:32.123Z,4.17
2019-05-21T10:38:37.160Z,5.35
2019-05-21T10:39:42.786Z,5.10
2019-05-21T10:40:47.822Z,3.80
2019-05-21T10:41:52.303Z,3.45
2019-05-21T10:42:57.291Z,4.10
2019-05-21T10:44:02.071Z,4.35
2019-05-21T10:45:07.876Z,6.05
2019-05-21T10:46:12.289Z,4.33
2019-05-21T10:47:17.274Z,4.70
2019-05-21T10:48:21.684Z,4.25
2019-05-21T10:49:26.720Z,7.40
2019-05-21T10:50:31.132Z,4.05
2019-05-21T10:51:36.172Z,4.03
2019-05-21T10:52:40.696Z,3.58
2019-05-21T10:53:45.896Z,4.92
2019-05-21T10:54:50.294Z,4.22
2019-05-21T10:55:55.408Z,4.30
2019-05-21T10:56:59.953Z,4.33
2019-05-21T10:58:05.080Z,3.22
2019-05-21T10:59:09.801Z,12.45
2019-05-21T11:00:23.023Z,4.17
2019-05-21T11:01:44.222Z,4.40
2019-05-21T11:02:50.538Z,6.37
2019-05-21T11:03:56.652Z,9.38
2019-05-21T11:05:11.723Z,3.30
2019-05-21T11:06:17.294Z,5.05
2019-05-21T11:07:23.047Z,10.95
2019-05-21T11:08:28.128Z,5.22
2019-05-21T11:09:32.795Z,4.62
2019-05-21T11:10:38.192Z,4.30
2019-05-21T11:11:42.607Z,3.75
2019-05-21T11:12:47.680Z,3.80
2019-05-21T11:13:52.104Z,3.75
2019-05-21T11:14:57.468Z,5.72
2019-05-21T11:16:01.976Z,5.75
2019-05-21T11:17:08.058Z,3.42
2019-05-21T11:18:12.631Z,3.80
2019-05-21T11:19:17.592Z,4.53
2019-05-21T11:20:22.156Z,4.33
2019-05-21T11:21:27.130Z,3.95
2019-05-21T11:22:31.528Z,14.18
2019-05-21T11:23:36.527Z,6.15
2019-05-21T11:24:40.936Z,3.00
2019-05-21T11:25:46.378Z,5.22
2019-05-21T11:26:50.868Z,4.33
2019-05-21T11:27:55.932Z,10.35
2019-05-21T11:29:00.341Z,7.75
2019-05-21T11:30:07.817Z,6.55
2019-05-21T11:31:12.299Z,5.05
2019-05-21T11:32:17.356Z,49.05
2019-05-21T11:33:21.775Z,23.10
2019-05-21T11:34:26.748Z,8.90
2019-05-21T11:35:31.395Z,6.17
2019-05-21T11:36:36.361Z,6.53
2019-05-21T11:37:40.841Z,4.33
2019-05-21T11:38:45.825Z,8.83
2019-05-21T11:39:50.306Z,10.10
2019-05-21T11:40:55.302Z,22.95
2019-05-21T11:41:59.707Z,13.20
2019-05-21T11:43:04.780Z,43.48
2019-05-21T11:44:09.335Z,10.05
2019-05-21T11:45:29.429Z,3.77
2019-05-21T11:46:20.746Z,4.05
2019-05-21T11:47:25.718Z,5.28
2019-05-21T11:48:30.215Z,7.37
2019-05-21T11:49:35.355Z,6.58
2019-05-21T11:50:40.204Z,4.05
2019-05-21T11:51:45.255Z,5.22
2019-05-21T11:52:49.840Z,6.95
2019-05-21T11:53:55.877Z,13.78
2019-05-21T11:55:00.315Z,6.97
2019-05-21T11:56:05.473Z,6.35
2019-05-21T11:57:09.949Z,5.85
2019-05-21T11:58:14.918Z,8.65
2019-05-21T11:59:19.352Z,2.90
2019-05-21T12:00:26.219Z,4.67
2019-05-21T12:01:31.168Z,4.78
2019-05-21T12:02:36.222Z,3.85
2019-05-21T12:03:40.647Z,7.42
2019-05-21T12:04:45.607Z,8.40
2019-05-21T12:05:50.466Z,12.03
2019-05-21T12:06:56.100Z,10.55
2019-05-21T12:08:00.516Z,9.73
2019-05-21T12:09:08.224Z,4.35
2019-05-21T12:10:13.316Z,6.85
2019-05-21T12:11:18.287Z,4.45
2019-05-21T12:12:22.739Z,6.97
2019-05-21T12:13:27.659Z,5.40
2019-05-21T12:14:32.145Z,3.40
2019-05-21T12:15:37.194Z,11.33
2019-05-21T12:16:41.623Z,4.15
2019-05-21T12:17:46.578Z,4.90
2019-05-21T12:18:51.063Z,3.83
2019-05-21T12:19:56.056Z,4.45
2019-05-21T12:21:00.471Z,2.58
2019-05-21T12:22:05.844Z,3.75
2019-05-21T12:23:10.253Z,4.62
2019-05-21T12:24:15.244Z,5.12
2019-05-21T12:25:20.082Z,3.37
2019-05-21T12:26:25.060Z,3.45
2019-05-21T12:27:29.549Z,4.25
2019-05-21T12:28:34.838Z,2.80
2019-05-21T12:29:39.271Z,3.58
2019-05-21T12:30:44.231Z,3.52
2019-05-21T12:31:48.711Z,3.47
2019-05-21T12:32:53.710Z,4.05
2019-05-21T12:33:58.194Z,3.37
2019-05-21T12:35:03.231Z,7.25
2019-05-21T12:36:08.277Z,7.60
2019-05-21T12:37:13.407Z,3.45
2019-05-21T12:38:18.165Z,5.97
2019-05-21T12:39:23.109Z,3.40
2019-05-21T12:40:27.955Z,5.33
2019-05-21T12:41:33.002Z,4.87
2019-05-21T12:42:37.403Z,4.37
2019-05-21T12:43:42.384Z,6.37
2019-05-21T12:44:46.813Z,16.37
2019-05-21T12:45:51.911Z,7.67
2019-05-21T12:46:56.490Z,23.80
2019-05-21T12:48:01.768Z,16.50
2019-05-21T12:49:06.617Z,5.47
2019-05-21T12:50:12.600Z,4.35
2019-05-21T12:51:17.010Z,4.47
2019-05-21T12:52:22.003Z,6.08
2019-05-21T12:53:27.467Z,6.05
2019-05-21T12:54:32.765Z,5.85
2019-05-21T12:55:37.244Z,4.40
2019-05-21T12:56:42.284Z,5.30
2019-05-21T12:57:48.041Z,5.55
2019-05-21T12:58:53.019Z,8.33
2019-05-21T12:59:57.513Z,5.05
2019-05-21T13:01:02.512Z,32.23
2019-05-21T13:02:07.007Z,7.85
2019-05-21T13:03:11.992Z,18.73
2019-05-21T13:04:16.486Z,14.93
2019-05-21T13:05:21.480Z,6.75
2019-05-21T13:06:25.887Z,3.10
2019-05-21T13:07:30.946Z,6.17
2019-05-21T13:08:35.344Z,7.37
2019-05-21T13:09:40.697Z,7.58
2019-05-21T13:10:45.669Z,3.15
2019-05-21T13:11:51.349Z,45.43
2019-05-21T13:12:56.795Z,11.80
2019-05-21T13:14:01.902Z,7.85
2019-05-21T13:15:07.757Z,4.78
2019-05-21T13:16:12.717Z,9.88
2019-05-21T13:17:17.142Z,6.90
2019-05-21T13:18:23.247Z,5.72
2019-05-21T13:19:28.229Z,4.28
2019-05-21T13:20:33.219Z,4.30
2019-05-21T13:21:37.787Z,8.53
2019-05-21T13:22:42.798Z,4.42
2019-05-21T13:23:47.279Z,5.22
2019-05-21T13:24:52.281Z,8.28
2019-05-21T13:25:56.916Z,20.90
2019-05-21T13:27:02.090Z,19.60
2019-05-21T13:28:06.915Z,7.25
2019-05-21T13:29:11.950Z,6.40
2019-05-21T13:30:16.730Z,5.97
2019-05-21T13:31:21.758Z,4.92
2019-05-21T13:32:26.316Z,10.20
2019-05-21T13:33:31.371Z,7.90
2019-05-21T13:34:36.213Z,10.63
2019-05-21T13:35:41.362Z,11.80
2019-05-21T13:36:45.772Z,9.65
2019-05-21T13:37:50.821Z,25.30
2019-05-21T13:38:55.326Z,16.07
2019-05-21T13:40:00.637Z,9.25
2019-05-21T13:41:05.664Z,22.52
2019-05-21T13:42:10.711Z,23.52
2019-05-21T13:43:15.264Z,34.73
2019-05-21T13:44:20.248Z,127.02
2019-05-21T13:45:24.702Z,58.68
2019-05-21T13:46:29.756Z,28.00
2019-05-21T13:47:34.379Z,36.17
2019-05-21T13:48:39.347Z,20.92
2019-05-21T13:49:43.941Z,24.40
2019-05-21T13:50:48.889Z,15.40
2019-05-21T13:51:53.300Z,12.13
2019-05-21T13:52:58.267Z,30.88
2019-05-21T13:54:02.754Z,15.08
2019-05-21T13:55:09.030Z,18.02
2019-05-21T13:56:14.080Z,34.50
2019-05-21T13:57:19.113Z,17.98
2019-05-21T13:58:23.527Z,50.40
2019-05-21T13:59:28.739Z,17.95
2019-05-21T14:00:35.009Z,4.47
2019-05-21T14:01:41.613Z,4.17
2019-05-21T14:02:46.554Z,3.67
2019-05-21T14:03:51.663Z,4.95
2019-05-21T14:04:56.249Z,3.80
2019-05-21T14:06:01.380Z,4.90
2019-05-21T14:07:05.894Z,4.12
2019-05-21T14:08:10.992Z,5.40
2019-05-21T14:09:15.441Z,9.53
2019-05-21T14:10:21.634Z,8.53
2019-05-21T14:11:26.820Z,8.43
2019-05-21T14:12:32.384Z,5.22
2019-05-21T14:13:36.894Z,3.40